createdAt,value
2018-07-03T00:00:14.841Z,94955.76
2018-07-03T00:02:43.617Z,94950.71
2018-07-03T00:05:12.401Z,94952.24
2018-07-03T00:07:41.133Z,94950.88
2018-07-03T00:10:10.633Z,94960.43
2018-07-03T00:12:39.742Z,94963.59
2018-07-03T00:15:08.818Z,94960.91
2018-07-03T00:17:37.570Z,94958.24
2018-07-03T00:20:07.844Z,94951.87
2018-07-03T00:22:36.593Z,94953.20
2018-07-03T00:25:05.452Z,94955.33
2018-07-03T00:27:34.383Z,94958.80
2018-07-03T00:30:04.674Z,94966.23
2018-07-03T00:32:33.405Z,94966.73
2018-07-03T00:35:02.155Z,94958.38
2018-07-03T00:37:30.921Z,94958.38
2018-07-03T00:39:59.633Z,94960.27
2018-07-03T00:42:28.342Z,94963.95
2018-07-03T00:44:57.090Z,94966.62
2018-07-03T00:47:25.881Z,94967.98
2018-07-03T00:49:54.640Z,94964.79
2018-07-03T00:52:23.381Z,94973.11
2018-07-03T00:54:52.116Z,94971.00
2018-07-03T00:57:20.905Z,94972.11
2018-07-03T01:00:00.629Z,94965.17
2018-07-03T01:02:29.413Z,94965.67
2018-07-03T01:04:58.142Z,94971.25
2018-07-03T01:07:27.117Z,94966.17
2018-07-03T01:09:55.902Z,94977.60
2018-07-03T01:12:24.748Z,94968.53
2018-07-03T01:14:53.542Z,94967.45
2018-07-03T01:17:22.515Z,94966.86
2018-07-03T01:19:51.401Z,94966.31
2018-07-03T01:22:20.580Z,94970.55
2018-07-03T01:24:49.319Z,94971.88
2018-07-03T01:27:18.079Z,94974.57
2018-07-03T01:29:46.830Z,94976.42
2018-07-03T01:32:15.570Z,94975.59
2018-07-03T01:34:44.325Z,94968.69
2018-07-03T01:37:13.141Z,94972.16
2018-07-03T01:39:41.991Z,94970.30
2018-07-03T01:42:10.731Z,94971.84
2018-07-03T01:44:39.493Z,94971.08
2018-07-03T01:47:08.230Z,94975.88
2018-07-03T01:49:37.048Z,94970.52
2018-07-03T01:52:05.922Z,94970.48
2018-07-03T01:54:34.716Z,94969.44
2018-07-03T01:57:03.517Z,94971.84
2018-07-03T01:59:32.275Z,94967.02
2018-07-03T02:02:01.011Z,94967.77
2018-07-03T02:04:29.785Z,94968.22
2018-07-03T02:06:58.527Z,94971.62
2018-07-03T02:09:27.291Z,94971.55
2018-07-03T02:11:56.065Z,94972.49
2018-07-03T02:14:24.840Z,94983.02
2018-07-03T02:16:53.652Z,94986.20
2018-07-03T02:19:22.389Z,94988.50
2018-07-03T02:21:51.314Z,94979.77
2018-07-03T02:24:20.114Z,94970.21
2018-07-03T02:26:49.299Z,94971.37
2018-07-03T02:29:18.065Z,94972.70
2018-07-03T02:31:46.810Z,94984.67
2018-07-03T02:34:15.537Z,94994.98
2018-07-03T02:36:44.263Z,94985.00
2018-07-03T02:39:13.729Z,94993.17
2018-07-03T02:41:42.653Z,94997.73
2018-07-03T02:44:11.389Z,94998.28
2018-07-03T02:46:40.203Z,95003.28
2018-07-03T02:49:09.009Z,95007.70
2018-07-03T02:51:37.750Z,95005.29
2018-07-03T02:54:06.545Z,95005.33
2018-07-03T02:56:35.255Z,95011.50
2018-07-03T02:59:04.083Z,95016.05
2018-07-03T03:01:32.828Z,95016.94
2018-07-03T03:04:01.640Z,95014.44
2018-07-03T03:06:30.374Z,95014.71
2018-07-03T03:08:59.103Z,95013.67
2018-07-03T03:11:27.831Z,95014.48
2018-07-03T03:13:57.281Z,95017.45
2018-07-03T03:16:26.012Z,95016.13
2018-07-03T03:18:54.758Z,95011.58
2018-07-03T03:21:23.905Z,95015.84
2018-07-03T03:23:52.664Z,95014.81
2018-07-03T03:26:21.444Z,95011.63
2018-07-03T03:28:50.307Z,95015.61
2018-07-03T03:31:19.163Z,95018.79
2018-07-03T03:33:47.893Z,95025.97
2018-07-03T03:36:16.726Z,95028.95
2018-07-03T03:38:45.545Z,95023.14
2018-07-03T03:41:14.341Z,95017.79
2018-07-03T03:43:43.646Z,95017.27
2018-07-03T03:46:12.386Z,95011.19
2018-07-03T03:48:41.176Z,95013.16
2018-07-03T03:51:10.034Z,95015.08
2018-07-03T03:53:38.797Z,95009.84
2018-07-03T03:56:07.561Z,95015.27
2018-07-03T03:58:36.396Z,95005.39
2018-07-03T04:01:05.225Z,95010.30
2018-07-03T04:03:34.004Z,95018.00
2018-07-03T04:06:02.798Z,95023.60
2018-07-03T04:08:31.999Z,95017.30
2018-07-03T04:11:00.855Z,95019.01
2018-07-03T04:13:29.593Z,95012.95
2018-07-03T04:15:58.363Z,95017.59
2018-07-03T04:18:32.068Z,95011.55
2018-07-03T04:21:01.809Z,95014.55
2018-07-03T04:23:30.874Z,95021.81
2018-07-03T04:26:00.189Z,95034.94
2018-07-03T04:28:29.176Z,95028.91
2018-07-03T04:30:57.864Z,95028.47
2018-07-03T04:33:26.844Z,95032.80
2018-07-03T04:35:55.699Z,95036.89
2018-07-03T04:38:24.480Z,95035.89
2018-07-03T04:40:53.408Z,95041.02
2018-07-03T04:43:22.142Z,95045.34
2018-07-03T04:45:50.937Z,95045.60
2018-07-03T04:48:19.730Z,95042.75
2018-07-03T04:50:48.514Z,95050.28
2018-07-03T04:53:17.288Z,95049.89
2018-07-03T04:55:46.358Z,95041.05
2018-07-03T04:58:15.068Z,95046.89
2018-07-03T05:00:43.856Z,95047.89
2018-07-03T05:03:12.643Z,95054.37
2018-07-03T05:05:41.853Z,95051.45
2018-07-03T05:08:10.655Z,95053.10
2018-07-03T05:10:39.422Z,95055.27
2018-07-03T05:13:08.125Z,95051.63
2018-07-03T05:15:36.995Z,95044.40
2018-07-03T05:18:07.241Z,95043.80
2018-07-03T05:20:35.994Z,95043.77
2018-07-03T05:23:04.786Z,95044.22
2018-07-03T05:25:33.534Z,95043.64
2018-07-03T05:28:02.298Z,95044.52
2018-07-03T05:30:31.049Z,95045.78
2018-07-03T05:33:00.128Z,95039.87
2018-07-03T05:35:29.006Z,95037.88
2018-07-03T05:37:57.887Z,95043.52
2018-07-03T05:40:26.746Z,95039.78
2018-07-03T05:42:55.509Z,95045.09
2018-07-03T05:45:24.592Z,95043.63
2018-07-03T05:47:53.387Z,95043.27
2018-07-03T05:50:22.174Z,95043.59
2018-07-03T05:52:50.943Z,95041.14
2018-07-03T05:55:19.703Z,95035.86
2018-07-03T05:57:48.459Z,95033.16
2018-07-03T06:00:17.227Z,95028.68
2018-07-03T06:02:45.986Z,95032.59
2018-07-03T06:05:14.796Z,95024.64
2018-07-03T06:07:43.675Z,95023.70
2018-07-03T06:10:12.469Z,95029.15
2018-07-03T06:12:41.225Z,95028.12
2018-07-03T06:15:10.013Z,95028.78
2018-07-03T06:17:39.003Z,95029.05
2018-07-03T06:20:09.998Z,95028.39
2018-07-03T06:22:38.725Z,95023.50
2018-07-03T06:25:07.491Z,95026.02
2018-07-03T06:27:37.214Z,95026.57
2018-07-03T06:30:07.332Z,95026.60
2018-07-03T06:32:36.183Z,95025.34
2018-07-03T06:35:05.286Z,95023.61
2018-07-03T06:37:34.885Z,95022.47
2018-07-03T06:40:04.303Z,95019.33
2018-07-03T06:42:33.051Z,95021.30
2018-07-03T06:45:01.868Z,95020.38
2018-07-03T06:47:30.981Z,95022.02
2018-07-03T06:49:59.838Z,95015.11
2018-07-03T06:52:28.579Z,95016.87
2018-07-03T06:54:57.324Z,95017.81
2018-07-03T06:57:26.105Z,95013.62
2018-07-03T06:59:54.874Z,95015.70
2018-07-03T07:02:23.856Z,95015.67
2018-07-03T07:04:52.944Z,95012.01
2018-07-03T07:07:38.038Z,95013.91
2018-07-03T07:10:23.225Z,95016.98
2018-07-03T07:12:52.025Z,95013.84
2018-07-03T07:15:20.769Z,95014.84
2018-07-03T07:17:50.195Z,95012.06
2018-07-03T07:20:18.975Z,95015.45
2018-07-03T07:22:47.719Z,95009.58
2018-07-03T07:25:16.450Z,95008.76
2018-07-03T07:27:45.301Z,95017.95
2018-07-03T07:30:14.953Z,95006.38
2018-07-03T07:32:43.715Z,95014.08
2018-07-03T07:35:12.505Z,95011.46
2018-07-03T07:37:41.573Z,95009.32
2018-07-03T07:40:10.352Z,95014.90
2018-07-03T07:42:39.087Z,95010.06
2018-07-03T07:45:08.242Z,95004.14
2018-07-03T07:47:37.381Z,95003.90
2018-07-03T07:50:06.379Z,95003.48
2018-07-03T07:52:35.215Z,95001.48
2018-07-03T07:55:04.058Z,95001.83
2018-07-03T07:57:32.894Z,95002.55
2018-07-03T08:00:01.753Z,95003.43
2018-07-03T08:02:30.536Z,94999.27
2018-07-03T08:04:59.260Z,95001.96
2018-07-03T08:07:28.914Z,94995.42
2018-07-03T08:09:57.674Z,94991.08
2018-07-03T08:12:26.395Z,94995.44
2018-07-03T08:14:55.132Z,94996.58
2018-07-03T08:17:23.921Z,94990.66
2018-07-03T08:19:52.738Z,94989.86
2018-07-03T08:22:21.498Z,94993.12
2018-07-03T08:24:50.257Z,94990.03
2018-07-03T08:27:19.046Z,94992.06
2018-07-03T08:29:47.834Z,94988.80
2018-07-03T08:32:16.640Z,94987.37
2018-07-03T08:34:45.559Z,94985.71
2018-07-03T08:37:14.275Z,94986.09
2018-07-03T08:39:43.039Z,94990.60
2018-07-03T08:42:11.871Z,94987.46
2018-07-03T08:44:41.642Z,94984.88
2018-07-03T08:47:10.426Z,94985.46
2018-07-03T08:49:39.279Z,94981.72
2018-07-03T08:52:08.050Z,94980.81
2018-07-03T08:54:36.894Z,94983.41
2018-07-03T08:57:06.046Z,94974.08
2018-07-03T08:59:34.886Z,94971.79
2018-07-03T09:02:03.687Z,94968.81
2018-07-03T09:04:32.475Z,94964.98
2018-07-03T09:07:01.247Z,94970.41
2018-07-03T09:09:30.108Z,94961.80
2018-07-03T09:11:58.927Z,94968.18
2018-07-03T09:14:27.753Z,94969.06
2018-07-03T09:16:56.506Z,94960.27
2018-07-03T09:19:25.468Z,94957.57
2018-07-03T09:21:54.318Z,94954.11
2018-07-03T09:24:23.169Z,94947.69
2018-07-03T09:26:51.969Z,94955.95
2018-07-03T09:29:20.764Z,94936.69
2018-07-03T09:31:49.529Z,94948.77
2018-07-03T09:34:18.253Z,94947.20
2018-07-03T09:36:47.731Z,94939.72
2018-07-03T09:39:16.516Z,94941.06
2018-07-03T09:41:45.341Z,94948.22
2018-07-03T09:44:14.123Z,94940.89
2018-07-03T09:46:43.477Z,94940.55
2018-07-03T09:49:12.186Z,94937.27
2018-07-03T09:51:40.960Z,94939.42
2018-07-03T09:54:09.672Z,94932.05
2018-07-03T09:56:38.419Z,94932.20
2018-07-03T09:59:08.099Z,94925.34
2018-07-03T10:01:36.834Z,94924.95
2018-07-03T10:04:05.651Z,94920.73
2018-07-03T10:06:34.406Z,94921.12
2018-07-03T10:09:04.222Z,94914.74
2018-07-03T10:11:32.994Z,94927.36
2018-07-03T10:14:01.957Z,94919.57
2018-07-03T10:16:30.934Z,94909.59
2018-07-03T10:19:00.057Z,94915.48
2018-07-03T10:21:28.911Z,94917.69
2018-07-03T10:23:57.809Z,94914.75
2018-07-03T10:26:26.591Z,94921.19
2018-07-03T10:28:55.450Z,94923.89
2018-07-03T10:31:24.403Z,94920.39
2018-07-03T10:33:53.402Z,94923.64
2018-07-03T10:36:22.164Z,94915.39
2018-07-03T10:38:50.895Z,94920.73
2018-07-03T10:41:20.093Z,94915.49
2018-07-03T10:43:48.830Z,94917.34
2018-07-03T10:46:17.609Z,94912.44
2018-07-03T10:48:46.430Z,94902.59
2018-07-03T10:51:15.332Z,94910.34
2018-07-03T10:53:44.199Z,94908.64
2018-07-03T10:56:12.975Z,94902.31
2018-07-03T10:58:41.760Z,94901.95
2018-07-03T11:01:10.598Z,94895.25
2018-07-03T11:03:39.358Z,94893.20
2018-07-03T11:06:08.168Z,94889.93
2018-07-03T11:08:37.246Z,94888.83
2018-07-03T11:11:06.103Z,94899.44
2018-07-03T11:13:35.000Z,94895.29
2018-07-03T11:16:03.806Z,94888.17
2018-07-03T11:18:32.585Z,94880.36
2018-07-03T11:21:01.581Z,94883.52
2018-07-03T11:23:30.791Z,94885.58
2018-07-03T11:25:59.669Z,94882.08
2018-07-03T11:28:28.429Z,94879.59
2018-07-03T11:30:57.599Z,94882.41
2018-07-03T11:33:26.460Z,94887.50
2018-07-03T11:35:55.210Z,94891.80
2018-07-03T11:38:24.004Z,94874.68
2018-07-03T11:40:53.776Z,94877.59
2018-07-03T11:43:24.680Z,94872.87
2018-07-03T11:45:53.455Z,94871.61
2018-07-03T11:48:22.318Z,94875.84
2018-07-03T11:50:51.099Z,94873.67
2018-07-03T11:53:19.877Z,94876.67
2018-07-03T11:55:48.667Z,94869.45
2018-07-03T11:58:17.470Z,94862.33
2018-07-03T12:00:46.239Z,94865.84
2018-07-03T12:03:14.997Z,94863.62
2018-07-03T12:05:43.791Z,94857.59
2018-07-03T12:08:12.595Z,94849.89
2018-07-03T12:10:41.378Z,94848.94
2018-07-03T12:13:10.401Z,94845.61
2018-07-03T12:15:39.214Z,94843.64
2018-07-03T12:18:12.132Z,94844.23
2018-07-03T12:20:40.968Z,94839.62
2018-07-03T12:23:09.740Z,94837.23
2018-07-03T12:25:38.541Z,94835.22
2018-07-03T12:28:07.648Z,94835.08
2018-07-03T12:30:36.429Z,94833.17
2018-07-03T12:33:05.297Z,94825.14
2018-07-03T12:35:34.057Z,94817.58
2018-07-03T12:38:03.084Z,94818.55
2018-07-03T12:40:31.859Z,94825.86
2018-07-03T12:43:00.636Z,94823.30
2018-07-03T12:45:29.485Z,94820.05
2018-07-03T12:47:58.902Z,94809.65
2018-07-03T12:50:27.777Z,94816.23
2018-07-03T12:52:56.601Z,94815.61
2018-07-03T12:55:25.403Z,94811.00
2018-07-03T12:57:54.218Z,94808.30
2018-07-03T13:00:23.043Z,94810.44
2018-07-03T13:02:52.171Z,94805.16
2018-07-03T13:05:21.081Z,94812.31
2018-07-03T13:07:50.360Z,94812.41
2018-07-03T13:10:19.112Z,94820.19
2018-07-03T13:12:47.948Z,94810.81
2018-07-03T13:15:16.773Z,94816.09
2018-07-03T13:17:45.710Z,94813.31
2018-07-03T13:20:14.861Z,94809.05
2018-07-03T13:22:43.550Z,94810.42
2018-07-03T13:25:13.253Z,94820.73
2018-07-03T13:27:41.992Z,94820.11
2018-07-03T13:30:11.622Z,94820.52
2018-07-03T13:32:40.722Z,94823.55
2018-07-03T13:35:10.792Z,94822.64
2018-07-03T13:37:39.558Z,94818.01
2018-07-03T13:40:09.442Z,94818.78
2018-07-03T13:42:38.221Z,94815.05
2018-07-03T13:45:07.401Z,94812.86
2018-07-03T13:47:36.117Z,94811.19
2018-07-03T13:50:05.615Z,94805.86
2018-07-03T13:52:34.393Z,94806.86
2018-07-03T13:55:03.200Z,94806.77
2018-07-03T13:57:32.830Z,94813.30
2018-07-03T14:00:01.628Z,94808.34
2018-07-03T14:02:30.430Z,94815.77
2018-07-03T14:04:59.270Z,94811.80
2018-07-03T14:07:28.089Z,94822.38
2018-07-03T14:09:56.919Z,94822.49
2018-07-03T14:12:25.682Z,94816.60
2018-07-03T14:14:54.434Z,94816.48
2018-07-03T14:17:23.529Z,94818.23
2018-07-03T14:19:52.372Z,94810.59
2018-07-03T14:22:21.083Z,94816.92
2018-07-03T14:24:49.844Z,94806.94
2018-07-03T14:27:18.673Z,94803.46
2018-07-03T14:29:47.536Z,94807.52
2018-07-03T14:32:16.347Z,94811.03
2018-07-03T14:34:45.088Z,94809.47
2018-07-03T14:37:14.258Z,94816.69
2018-07-03T14:39:43.037Z,94816.33
2018-07-03T14:42:11.799Z,94812.39
2018-07-03T14:44:40.672Z,94812.58
2018-07-03T14:47:09.461Z,94803.27
2018-07-03T14:49:38.261Z,94804.14
2018-07-03T14:52:07.092Z,94805.33
2018-07-03T14:54:35.873Z,94809.63
2018-07-03T14:57:04.712Z,94806.72
2018-07-03T14:59:33.410Z,94807.11
2018-07-03T15:02:02.141Z,94806.68
2018-07-03T15:04:30.871Z,94811.19
2018-07-03T15:06:59.701Z,94803.50
2018-07-03T15:09:28.438Z,94804.22
2018-07-03T15:11:57.232Z,94800.31
2018-07-03T15:14:26.016Z,94803.73
2018-07-03T15:16:54.776Z,94808.07
2018-07-03T15:19:28.793Z,94804.67
2018-07-03T15:21:58.490Z,94814.07
2018-07-03T15:24:28.322Z,94817.61
2018-07-03T15:26:57.063Z,94812.63
2018-07-03T15:29:25.849Z,94803.67
2018-07-03T15:31:55.567Z,94809.18
2018-07-03T15:34:24.511Z,94805.52
2018-07-03T15:36:53.542Z,94814.48
2018-07-03T15:39:22.312Z,94804.25
2018-07-03T15:41:51.103Z,94821.82
2018-07-03T15:44:30.924Z,94828.91
2018-07-03T15:46:59.742Z,94829.30
2018-07-03T15:49:28.527Z,94832.41
2018-07-03T15:51:57.348Z,94836.10
2018-07-03T15:54:26.150Z,94839.62
2018-07-03T15:56:54.997Z,94841.48
2018-07-03T15:59:23.882Z,94841.84
2018-07-03T16:01:52.614Z,94839.08
2018-07-03T16:05:34.845Z,94843.87
2018-07-03T16:09:12.966Z,94844.89
2018-07-03T16:11:41.983Z,94856.28
2018-07-03T16:14:12.807Z,94855.19
2018-07-03T16:16:41.821Z,94868.43
2018-07-03T16:19:15.825Z,94864.81
2018-07-03T16:21:45.055Z,94865.85
2018-07-03T16:24:13.887Z,94865.64
2018-07-03T16:26:42.658Z,94856.44
2018-07-03T16:29:12.478Z,94854.05
2018-07-03T16:31:41.579Z,94851.53
2018-07-03T16:34:10.364Z,94858.28
2018-07-03T16:36:39.108Z,94860.58
2018-07-03T16:39:10.770Z,94864.63
2018-07-03T16:41:40.054Z,94869.56
2018-07-03T16:44:09.527Z,94868.88
2018-07-03T16:46:38.320Z,94873.27
2018-07-03T16:49:07.153Z,94865.38
2018-07-03T16:51:36.491Z,94868.00
2018-07-03T16:54:05.280Z,94863.66
2018-07-03T16:56:34.043Z,94867.45
2018-07-03T16:59:02.781Z,94873.94
2018-07-03T17:01:31.546Z,94878.41
2018-07-03T17:04:00.413Z,94888.66
2018-07-03T17:06:29.421Z,94891.96
2018-07-03T17:08:58.209Z,94895.52
2018-07-03T17:11:27.023Z,94902.61
2018-07-03T17:13:55.915Z,94908.67
2018-07-03T17:16:24.803Z,94906.76
2018-07-03T17:18:58.842Z,94912.88
2018-07-03T17:21:27.700Z,94911.70
2018-07-03T17:23:56.425Z,94914.04
2018-07-03T17:26:25.181Z,94916.66
2018-07-03T17:28:54.111Z,94921.74
2018-07-03T17:31:22.907Z,94918.97
2018-07-03T17:33:51.796Z,94933.69
2018-07-03T17:36:20.834Z,94929.25
2018-07-03T17:38:49.591Z,94939.55
2018-07-03T17:41:29.439Z,94947.28
2018-07-03T17:44:13.621Z,94948.45
2018-07-03T17:46:42.727Z,94945.23
2018-07-03T17:49:11.866Z,94944.88
2018-07-03T17:51:40.702Z,94944.39
2018-07-03T17:54:09.507Z,94937.67
2018-07-03T17:56:38.646Z,94942.88
2018-07-03T17:59:07.463Z,94943.32
2018-07-03T18:01:36.194Z,94940.42
2018-07-03T18:04:05.278Z,94940.41
2018-07-03T18:06:36.933Z,94948.84
2018-07-03T18:09:09.172Z,94940.48
2018-07-03T18:11:38.052Z,94937.89
2018-07-03T18:14:07.586Z,94935.20
2018-07-03T18:16:36.316Z,94941.38
2018-07-03T18:19:10.945Z,94941.39
2018-07-03T18:21:39.754Z,94941.39
2018-07-03T18:24:08.592Z,94947.54
2018-07-03T18:26:37.371Z,94947.23
2018-07-03T18:29:06.141Z,94945.16
2018-07-03T18:31:34.983Z,94947.23
2018-07-03T18:34:03.727Z,94943.37
2018-07-03T18:36:32.543Z,94948.48
2018-07-03T18:39:01.328Z,94955.98
2018-07-03T18:41:30.092Z,94962.52
2018-07-03T18:43:59.090Z,94966.00
2018-07-03T18:46:27.964Z,94967.62
2018-07-03T18:48:57.345Z,94970.05
2018-07-03T18:51:26.173Z,94964.75
2018-07-03T18:53:54.913Z,94964.56
2018-07-03T18:56:23.704Z,94963.50
2018-07-03T18:58:52.436Z,94966.72
2018-07-03T19:01:21.214Z,94971.83
2018-07-03T19:03:50.508Z,94979.12
2018-07-03T19:06:19.315Z,94976.20
2018-07-03T19:08:48.131Z,94981.61
2018-07-03T19:11:16.917Z,94980.30
2018-07-03T19:13:45.751Z,94982.47
2018-07-03T19:16:14.534Z,94987.33
2018-07-03T19:18:43.305Z,94990.50
2018-07-03T19:21:12.529Z,94991.34
2018-07-03T19:23:41.298Z,94993.51
2018-07-03T19:26:10.476Z,95001.00
2018-07-03T19:28:39.308Z,95008.19
2018-07-03T19:31:08.198Z,95007.42
2018-07-03T19:33:36.996Z,95011.72
2018-07-03T19:36:05.853Z,95012.53
2018-07-03T19:38:34.854Z,95011.25
2018-07-03T19:41:03.650Z,95015.32
2018-07-03T19:43:34.969Z,95014.27
2018-07-03T19:46:04.513Z,95014.53
2018-07-03T19:48:33.765Z,95012.91
2018-07-03T19:51:02.535Z,95017.20
2018-07-03T19:53:31.552Z,95019.09
2018-07-03T19:56:00.938Z,95011.63
2018-07-03T19:58:29.673Z,95010.81
2018-07-03T20:00:58.422Z,95011.84
2018-07-03T20:03:27.234Z,95009.98
2018-07-03T20:05:55.993Z,95014.27
2018-07-03T20:08:24.792Z,95011.31
2018-07-03T20:10:53.562Z,95013.98
2018-07-03T20:13:22.375Z,95009.44
2018-07-03T20:15:51.133Z,95009.71
2018-07-03T20:18:19.961Z,95005.16
2018-07-03T20:20:48.752Z,95007.88
2018-07-03T20:23:17.607Z,95009.49
2018-07-03T20:25:46.369Z,95005.16
2018-07-03T20:28:15.145Z,95008.37
2018-07-03T20:30:43.898Z,95008.63
2018-07-03T20:33:12.701Z,95004.62
2018-07-03T20:35:41.449Z,95004.12
2018-07-03T20:38:11.941Z,95002.79
2018-07-03T20:41:00.330Z,95000.91
2018-07-03T20:43:30.373Z,94995.56
2018-07-03T20:45:59.567Z,94993.69
2018-07-03T20:48:28.822Z,94997.98
2018-07-03T20:50:58.272Z,94996.91
2018-07-03T20:53:27.012Z,95004.72
2018-07-03T20:55:56.068Z,95005.48
2018-07-03T20:58:25.079Z,95002.80
2018-07-03T21:00:53.927Z,95006.55
2018-07-03T21:03:22.705Z,95004.67
2018-07-03T21:05:51.612Z,95008.42
2018-07-03T21:08:20.512Z,95013.51
2018-07-03T21:10:49.301Z,95001.99
2018-07-03T21:13:18.053Z,95007.89
2018-07-03T21:15:46.945Z,95004.44
2018-07-03T21:18:15.651Z,95004.45
2018-07-03T21:20:44.404Z,95003.38
2018-07-03T21:23:13.149Z,95002.36
2018-07-03T21:25:41.894Z,95005.84
2018-07-03T21:28:10.711Z,95012.30
2018-07-03T21:30:39.545Z,95013.38
2018-07-03T21:33:08.250Z,95013.38
2018-07-03T21:35:36.973Z,95014.98
2018-07-03T21:38:05.748Z,95014.71
2018-07-03T21:40:34.528Z,95010.97
2018-07-03T21:43:03.313Z,95019.27
2018-07-03T21:45:32.078Z,95020.60
2018-07-03T21:48:00.878Z,95008.02
2018-07-03T21:50:29.637Z,95014.42
2018-07-03T21:52:58.387Z,95011.74
2018-07-03T21:55:27.101Z,95011.78
2018-07-03T21:57:55.862Z,95006.70
2018-07-03T22:00:31.500Z,95012.34
2018-07-03T22:03:00.274Z,95005.66
2018-07-03T22:05:29.062Z,95005.70
2018-07-03T22:07:57.797Z,95002.19
2018-07-03T22:10:26.530Z,95002.75
2018-07-03T22:12:55.352Z,94995.83
2018-07-03T22:15:24.119Z,94995.83
2018-07-03T22:17:52.905Z,94997.17
2018-07-03T22:20:21.649Z,94996.39
2018-07-03T22:22:50.430Z,94998.53
2018-07-03T22:25:19.173Z,94995.59
2018-07-03T22:27:47.978Z,94996.69
2018-07-03T22:30:17.074Z,94992.41
2018-07-03T22:32:45.861Z,94995.88
2018-07-03T22:35:14.614Z,94992.16
2018-07-03T22:37:43.411Z,94987.64
2018-07-03T22:40:12.183Z,94992.72
2018-07-03T22:42:40.955Z,94989.23
2018-07-03T22:45:09.742Z,94992.70
2018-07-03T22:47:38.515Z,94994.59
2018-07-03T22:50:07.294Z,95000.20
2018-07-03T22:52:36.072Z,94994.84
2018-07-03T22:55:05.529Z,94995.91
2018-07-03T22:57:34.290Z,94989.52
2018-07-03T23:00:04.377Z,94995.13
2018-07-03T23:02:33.119Z,94994.88
2018-07-03T23:05:01.821Z,94995.68
2018-07-03T23:07:30.514Z,94997.27
2018-07-03T23:09:59.261Z,94990.31
2018-07-03T23:12:28.049Z,94987.41
2018-07-03T23:14:56.833Z,94983.91
2018-07-03T23:17:25.581Z,94996.22
2018-07-03T23:19:54.381Z,94998.06
2018-07-03T23:22:23.100Z,94994.34
2018-07-03T23:24:51.870Z,94995.66
2018-07-03T23:27:20.678Z,94998.09
2018-07-03T23:29:49.468Z,94998.61
2018-07-03T23:32:18.177Z,95004.74
2018-07-03T23:34:46.919Z,95010.36
2018-07-03T23:37:15.636Z,95007.95
2018-07-03T23:39:44.386Z,95001.27
2018-07-03T23:42:13.190Z,95006.89
2018-07-03T23:44:41.925Z,95001.53
2018-07-03T23:47:21.705Z,95002.87
2018-07-03T23:50:02.229Z,95002.88
2018-07-03T23:52:42.050Z,95008.23
2018-07-03T23:55:21.700Z,95017.59
2018-07-03T23:58:01.362Z,95015.72
